Albert J Ellis Airport
KOAJ : now visible

Airfield :











YOU CAN JOIN US ON...

 
LOGIN :

Register | Disclaimer

   EN    FR    IT 

 









Legend :    VFR   Marginal VFR   IFR   Intensive IFR   Very Intensive IFR
Visi :
Ceiling :
>= 8 km
>= 3000ft
5 to 8 km
1000 to 3000 ft
1500m to 5 km
500 to 1000 ft
800 to 1500m
200 to 500 ft
< 800m
< 200 ft
Symbols :   Thunderstorms  Fog  Heavy snow  Heavy precipitations  Wind > 20 kt






- Airport Elevation : 94 ft


KOAJ - Albert J Ellis

CURRENT METAR :
  • 240456Z AUTO 03004KT 10SM BKN090 07/06 A3022 RMK AO2 SLP236 T00720056 401441006

EXPIRED METARs :
  • 240356Z AUTO 02005KT 10SM CLR 08/06 A3024 RMK AO2 SLP242 T00780061
  • 240256Z AUTO 36004KT 10SM CLR 08/06 A3024 RMK AO2 SLP242 T00830061 58001

TAF KOAJ
Valid from the 24 at 00:00 until the 25 at 00:00 UTC


232335Z 2400/2424 03005KT P6SM OVC060
FM240600 04004KT 5SM BR BKN008
FM240900 05003KT 3SM BR BKN005
FM241400 10010KT P6SM BKN060 AMD LTD TO CLD VIS AND WIND



MET'MAP, your aeronautical weather chart ! - Copyright ORBIFLY December 2007 - Disclaimer

ORBIFLY MET'MAP TEAM :

Programming & Development : Alexandra Zaïnal
Concept & original design : Baudouin d'Aumeries
Assistance for programming : Marc-Olivier Méhu
Technical & hardware support : Manuel Goepfert

Contact : metmap@orbifly.com




SOURCES & CREDITS :

   NOAA       Earth
Advisory